sensor_id;sensor_type;location;lat;lon;timestamp;temperature;humidity
51567;DHT22;37657;53.182;5.638;2023-08-30T00:02:04;14.10;99.90
51567;DHT22;37657;53.182;5.638;2023-08-30T00:04:30;14.00;99.90
51567;DHT22;37657;53.182;5.638;2023-08-30T00:06:56;14.00;99.90
51567;DHT22;37657;53.182;5.638;2023-08-30T00:09:21;14.00;99.90
51567;DHT22;37657;53.182;5.638;2023-08-30T00:11:47;14.00;99.90
51567;DHT22;37657;53.182;5.638;2023-08-30T00:14:12;13.90;99.90
51567;DHT22;37657;53.182;5.638;2023-08-30T00:16:38;13.80;99.90
51567;DHT22;37657;53.182;5.638;2023-08-30T00:19:04;13.90;99.90
51567;DHT22;37657;53.182;5.638;2023-08-30T00:21:29;13.90;99.90
51567;DHT22;37657;53.182;5.638;2023-08-30T00:23:55;13.80;99.90
51567;DHT22;37657;53.182;5.638;2023-08-30T00:26:21;13.80;99.90
51567;DHT22;37657;53.182;5.638;2023-08-30T00:28:47;13.80;99.90
51567;DHT22;37657;53.182;5.638;2023-08-30T00:31:12;13.80;99.90
51567;DHT22;37657;53.182;5.638;2023-08-30T00:33:38;13.70;99.90
51567;DHT22;37657;53.182;5.638;2023-08-30T00:36:03;13.70;99.90
51567;DHT22;37657;53.182;5.638;2023-08-30T00:38:33;13.70;99.90
51567;DHT22;37657;53.182;5.638;2023-08-30T00:40:59;13.70;99.90
51567;DHT22;37657;53.182;5.638;2023-08-30T00:43:24;13.60;99.90
51567;DHT22;37657;53.182;5.638;2023-08-30T00:45:50;13.60;99.90
51567;DHT22;37657;53.182;5.638;2023-08-30T00:48:18;13.60;99.90
51567;DHT22;37657;53.182;5.638;2023-08-30T00:50:45;13.60;99.90
51567;DHT22;37657;53.182;5.638;2023-08-30T00:53:11;13.60;99.90
51567;DHT22;37657;53.182;5.638;2023-08-30T00:55:38;13.60;99.90
51567;DHT22;37657;53.182;5.638;2023-08-30T00:58:05;13.60;99.90
51567;DHT22;37657;53.182;5.638;2023-08-30T01:00:31;13.60;99.90
51567;DHT22;37657;53.182;5.638;2023-08-30T01:02:57;13.60;99.90
51567;DHT22;37657;53.182;5.638;2023-08-30T01:05:23;13.60;99.90
51567;DHT22;37657;53.182;5.638;2023-08-30T01:07:50;13.50;99.90
51567;DHT22;37657;53.182;5.638;2023-08-30T01:10:17;13.50;99.90
51567;DHT22;37657;53.182;5.638;2023-08-30T01:12:51;13.50;99.90
51567;DHT22;37657;53.182;5.638;2023-08-30T01:15:19;13.50;99.90
51567;DHT22;37657;53.182;5.638;2023-08-30T01:17:47;13.50;99.90
51567;DHT22;37657;53.182;5.638;2023-08-30T01:20:15;13.50;99.90
51567;DHT22;37657;53.182;5.638;2023-08-30T01:23:05;13.50;99.90
51567;DHT22;37657;53.182;5.638;2023-08-30T01:28:12;13.30;99.90
51567;DHT22;37657;53.182;5.638;2023-08-30T01:30:40;13.10;99.90
51567;DHT22;37657;53.182;5.638;2023-08-30T01:33:08;13.00;99.90
51567;DHT22;37657;53.182;5.638;2023-08-30T01:35:34;13.00;99.90
51567;DHT22;37657;53.182;5.638;2023-08-30T01:38:03;12.90;99.90
51567;DHT22;37657;53.182;5.638;2023-08-30T01:40:35;12.90;99.90
51567;DHT22;37657;53.182;5.638;2023-08-30T01:43:02;12.80;99.90
51567;DHT22;37657;53.182;5.638;2023-08-30T01:45:29;12.80;99.90
51567;DHT22;37657;53.182;5.638;2023-08-30T01:47:56;12.80;99.90
51567;DHT22;37657;53.182;5.638;2023-08-30T01:50:22;12.80;99.90
51567;DHT22;37657;53.182;5.638;2023-08-30T01:52:48;12.80;99.90
51567;DHT22;37657;53.182;5.638;2023-08-30T01:55:15;12.80;99.90
51567;DHT22;37657;53.182;5.638;2023-08-30T01:57:43;12.90;99.90
51567;DHT22;37657;53.182;5.638;2023-08-30T02:00:09;12.90;99.90
51567;DHT22;37657;53.182;5.638;2023-08-30T02:02:34;12.90;99.90
51567;DHT22;37657;53.182;5.638;2023-08-30T02:05:00;12.80;99.90
51567;DHT22;37657;53.182;5.638;2023-08-30T02:07:35;12.80;99.90
51567;DHT22;37657;53.182;5.638;2023-08-30T02:10:07;12.90;99.90
51567;DHT22;37657;53.182;5.638;2023-08-30T02:12:46;12.90;99.90
51567;DHT22;37657;53.182;5.638;2023-08-30T02:15:13;12.90;99.90
51567;DHT22;37657;53.182;5.638;2023-08-30T02:17:39;12.90;99.90
51567;DHT22;37657;53.182;5.638;2023-08-30T02:20:06;13.00;99.90
51567;DHT22;37657;53.182;5.638;2023-08-30T02:22:33;12.90;99.90
51567;DHT22;37657;53.182;5.638;2023-08-30T02:24:59;13.00;99.90
51567;DHT22;37657;53.182;5.638;2023-08-30T02:27:24;12.90;99.90
51567;DHT22;37657;53.182;5.638;2023-08-30T02:29:50;12.90;99.90
51567;DHT22;37657;53.182;5.638;2023-08-30T02:32:16;12.90;99.90
51567;DHT22;37657;53.182;5.638;2023-08-30T02:34:48;12.90;99.90
51567;DHT22;37657;53.182;5.638;2023-08-30T02:37:14;12.90;99.90
51567;DHT22;37657;53.182;5.638;2023-08-30T02:39:39;12.90;99.90
51567;DHT22;37657;53.182;5.638;2023-08-30T02:42:05;12.80;99.90
51567;DHT22;37657;53.182;5.638;2023-08-30T02:44:30;12.80;99.90
51567;DHT22;37657;53.182;5.638;2023-08-30T02:46:56;12.80;99.90
51567;DHT22;37657;53.182;5.638;2023-08-30T02:49:21;12.80;99.90
51567;DHT22;37657;53.182;5.638;2023-08-30T02:51:47;12.90;99.90
51567;DHT22;37657;53.182;5.638;2023-08-30T02:54:13;13.00;99.90
51567;DHT22;37657;53.182;5.638;2023-08-30T02:56:39;13.10;99.90
51567;DHT22;37657;53.182;5.638;2023-08-30T02:59:05;13.20;99.90
51567;DHT22;37657;53.182;5.638;2023-08-30T03:01:30;13.30;99.90
51567;DHT22;37657;53.182;5.638;2023-08-30T03:03:56;13.30;99.90
51567;DHT22;37657;53.182;5.638;2023-08-30T03:06:22;13.30;99.90
51567;DHT22;37657;53.182;5.638;2023-08-30T03:08:47;13.50;99.90
51567;DHT22;37657;53.182;5.638;2023-08-30T03:11:13;13.50;99.90
51567;DHT22;37657;53.182;5.638;2023-08-30T03:13:39;13.70;99.90
51567;DHT22;37657;53.182;5.638;2023-08-30T03:16:12;13.60;99.90
51567;DHT22;37657;53.182;5.638;2023-08-30T03:18:38;13.60;99.90
51567;DHT22;37657;53.182;5.638;2023-08-30T03:21:04;13.70;99.90
51567;DHT22;37657;53.182;5.638;2023-08-30T03:23:31;13.70;99.90
51567;DHT22;37657;53.182;5.638;2023-08-30T03:25:57;13.70;99.90
51567;DHT22;37657;53.182;5.638;2023-08-30T03:28:23;13.80;99.90
51567;DHT22;37657;53.182;5.638;2023-08-30T03:30:48;13.80;99.90
51567;DHT22;37657;53.182;5.638;2023-08-30T03:33:14;13.80;99.90
51567;DHT22;37657;53.182;5.638;2023-08-30T03:35:39;13.90;99.90
51567;DHT22;37657;53.182;5.638;2023-08-30T03:38:05;13.80;99.90
51567;DHT22;37657;53.182;5.638;2023-08-30T03:40:31;13.90;99.90
51567;DHT22;37657;53.182;5.638;2023-08-30T03:42:56;13.90;99.90
51567;DHT22;37657;53.182;5.638;2023-08-30T03:45:22;14.00;99.90
51567;DHT22;37657;53.182;5.638;2023-08-30T03:47:47;13.90;99.90
51567;DHT22;37657;53.182;5.638;2023-08-30T03:50:13;13.90;99.90
51567;DHT22;37657;53.182;5.638;2023-08-30T03:52:39;14.00;99.90
51567;DHT22;37657;53.182;5.638;2023-08-30T03:55:04;14.00;99.90
51567;DHT22;37657;53.182;5.638;2023-08-30T03:57:30;14.00;99.90
51567;DHT22;37657;53.182;5.638;2023-08-30T03:59:56;14.00;99.90
51567;DHT22;37657;53.182;5.638;2023-08-30T04:02:21;14.00;99.90
51567;DHT22;37657;53.182;5.638;2023-08-30T04:04:47;14.00;99.90
51567;DHT22;37657;53.182;5.638;2023-08-30T04:07:14;14.00;99.90
51567;DHT22;37657;53.182;5.638;2023-08-30T04:09:39;14.10;99.90
51567;DHT22;37657;53.182;5.638;2023-08-30T04:12:05;14.20;99.90
51567;DHT22;37657;53.182;5.638;2023-08-30T04:14:31;14.20;99.90
51567;DHT22;37657;53.182;5.638;2023-08-30T04:16:56;14.20;99.90
51567;DHT22;37657;53.182;5.638;2023-08-30T04:19:22;14.30;99.90
51567;DHT22;37657;53.182;5.638;2023-08-30T04:21:48;14.30;99.90
51567;DHT22;37657;53.182;5.638;2023-08-30T04:24:14;14.20;99.90
51567;DHT22;37657;53.182;5.638;2023-08-30T04:26:40;14.20;99.90
51567;DHT22;37657;53.182;5.638;2023-08-30T04:29:06;14.30;99.90
51567;DHT22;37657;53.182;5.638;2023-08-30T04:31:31;14.30;99.90
51567;DHT22;37657;53.182;5.638;2023-08-30T04:33:57;14.50;99.90
51567;DHT22;37657;53.182;5.638;2023-08-30T04:36:23;14.50;99.90
51567;DHT22;37657;53.182;5.638;2023-08-30T04:38:48;14.50;99.90
51567;DHT22;37657;53.182;5.638;2023-08-30T04:41:14;14.40;99.90
51567;DHT22;37657;53.182;5.638;2023-08-30T04:43:39;14.40;99.90
51567;DHT22;37657;53.182;5.638;2023-08-30T04:46:05;14.40;99.90
51567;DHT22;37657;53.182;5.638;2023-08-30T04:48:31;14.50;99.90
51567;DHT22;37657;53.182;5.638;2023-08-30T04:51:04;14.50;99.90
51567;DHT22;37657;53.182;5.638;2023-08-30T04:53:30;14.60;99.90
51567;DHT22;37657;53.182;5.638;2023-08-30T04:55:55;14.40;99.90
51567;DHT22;37657;53.182;5.638;2023-08-30T04:58:21;14.40;99.90
51567;DHT22;37657;53.182;5.638;2023-08-30T05:00:47;14.40;99.90
51567;DHT22;37657;53.182;5.638;2023-08-30T05:03:12;14.40;99.90
51567;DHT22;37657;53.182;5.638;2023-08-30T05:05:38;14.40;99.90
51567;DHT22;37657;53.182;5.638;2023-08-30T05:08:04;14.30;99.90
51567;DHT22;37657;53.182;5.638;2023-08-30T05:10:29;14.50;99.90
51567;DHT22;37657;53.182;5.638;2023-08-30T05:12:55;14.50;99.90
51567;DHT22;37657;53.182;5.638;2023-08-30T05:15:21;14.50;99.90
51567;DHT22;37657;53.182;5.638;2023-08-30T05:17:47;14.50;99.90
51567;DHT22;37657;53.182;5.638;2023-08-30T05:20:13;14.50;99.90
51567;DHT22;37657;53.182;5.638;2023-08-30T05:22:39;14.50;99.90
51567;DHT22;37657;53.182;5.638;2023-08-30T05:25:05;14.60;99.90
51567;DHT22;37657;53.182;5.638;2023-08-30T05:27:30;14.50;99.90
51567;DHT22;37657;53.182;5.638;2023-08-30T05:29:56;14.60;99.90
51567;DHT22;37657;53.182;5.638;2023-08-30T05:32:22;14.70;99.90
51567;DHT22;37657;53.182;5.638;2023-08-30T05:34:47;14.70;99.90
51567;DHT22;37657;53.182;5.638;2023-08-30T05:37:13;14.70;99.90
51567;DHT22;37657;53.182;5.638;2023-08-30T05:39:39;14.60;99.90
51567;DHT22;37657;53.182;5.638;2023-08-30T05:42:04;14.70;99.90
51567;DHT22;37657;53.182;5.638;2023-08-30T05:44:30;14.70;99.90
51567;DHT22;37657;53.182;5.638;2023-08-30T05:46:56;14.70;99.90
51567;DHT22;37657;53.182;5.638;2023-08-30T05:49:21;14.80;99.90
51567;DHT22;37657;53.182;5.638;2023-08-30T05:51:47;14.70;99.90
51567;DHT22;37657;53.182;5.638;2023-08-30T05:54:13;14.70;99.90
51567;DHT22;37657;53.182;5.638;2023-08-30T05:56:38;14.70;99.90
51567;DHT22;37657;53.182;5.638;2023-08-30T05:59:04;14.80;99.90
51567;DHT22;37657;53.182;5.638;2023-08-30T06:01:30;14.80;99.90
51567;DHT22;37657;53.182;5.638;2023-08-30T06:03:55;14.90;99.90
51567;DHT22;37657;53.182;5.638;2023-08-30T06:06:21;14.90;99.90
51567;DHT22;37657;53.182;5.638;2023-08-30T06:08:46;14.80;99.90
51567;DHT22;37657;53.182;5.638;2023-08-30T06:11:12;15.00;99.90
51567;DHT22;37657;53.182;5.638;2023-08-30T06:13:38;15.00;99.90
51567;DHT22;37657;53.182;5.638;2023-08-30T06:16:04;15.00;99.90
51567;DHT22;37657;53.182;5.638;2023-08-30T06:18:32;15.00;99.90
51567;DHT22;37657;53.182;5.638;2023-08-30T06:20:58;14.90;99.90
51567;DHT22;37657;53.182;5.638;2023-08-30T06:23:23;15.00;99.90
51567;DHT22;37657;53.182;5.638;2023-08-30T06:25:56;15.00;99.90
51567;DHT22;37657;53.182;5.638;2023-08-30T06:28:22;15.00;99.90
51567;DHT22;37657;53.182;5.638;2023-08-30T06:30:48;15.10;99.90
51567;DHT22;37657;53.182;5.638;2023-08-30T06:33:13;15.00;99.90
51567;DHT22;37657;53.182;5.638;2023-08-30T06:35:39;15.10;99.90
51567;DHT22;37657;53.182;5.638;2023-08-30T06:38:05;15.20;99.90
51567;DHT22;37657;53.182;5.638;2023-08-30T06:40:31;15.40;99.90
51567;DHT22;37657;53.182;5.638;2023-08-30T06:42:56;15.60;99.90
51567;DHT22;37657;53.182;5.638;2023-08-30T06:45:22;15.70;99.90
51567;DHT22;37657;53.182;5.638;2023-08-30T06:47:48;15.80;99.90
51567;DHT22;37657;53.182;5.638;2023-08-30T06:50:15;15.80;99.90
51567;DHT22;37657;53.182;5.638;2023-08-30T06:52:40;15.90;99.90
51567;DHT22;37657;53.182;5.638;2023-08-30T06:55:06;15.80;99.90
51567;DHT22;37657;53.182;5.638;2023-08-30T06:57:32;15.80;99.90
51567;DHT22;37657;53.182;5.638;2023-08-30T06:59:57;15.80;99.90
51567;DHT22;37657;53.182;5.638;2023-08-30T07:02:25;15.80;99.90
51567;DHT22;37657;53.182;5.638;2023-08-30T07:04:51;15.70;99.90
51567;DHT22;37657;53.182;5.638;2023-08-30T07:07:16;15.80;99.90
51567;DHT22;37657;53.182;5.638;2023-08-30T07:09:42;15.70;99.90
51567;DHT22;37657;53.182;5.638;2023-08-30T07:12:07;15.70;99.90
51567;DHT22;37657;53.182;5.638;2023-08-30T07:14:33;15.70;99.90
51567;DHT22;37657;53.182;5.638;2023-08-30T07:16:59;15.70;99.90
51567;DHT22;37657;53.182;5.638;2023-08-30T07:19:25;15.70;99.90
51567;DHT22;37657;53.182;5.638;2023-08-30T07:21:51;15.90;99.90
51567;DHT22;37657;53.182;5.638;2023-08-30T07:24:16;15.90;99.90
51567;DHT22;37657;53.182;5.638;2023-08-30T07:26:42;15.90;99.90
51567;DHT22;37657;53.182;5.638;2023-08-30T07:29:09;16.00;99.90
51567;DHT22;37657;53.182;5.638;2023-08-30T07:31:34;16.10;99.90
51567;DHT22;37657;53.182;5.638;2023-08-30T07:34:00;16.30;99.90
51567;DHT22;37657;53.182;5.638;2023-08-30T07:36:26;16.30;99.90
51567;DHT22;37657;53.182;5.638;2023-08-30T07:38:53;16.30;99.90
51567;DHT22;37657;53.182;5.638;2023-08-30T07:41:19;16.40;99.90
51567;DHT22;37657;53.182;5.638;2023-08-30T07:43:45;16.50;99.90
51567;DHT22;37657;53.182;5.638;2023-08-30T07:46:10;16.50;99.90
51567;DHT22;37657;53.182;5.638;2023-08-30T07:48:36;16.60;99.90
51567;DHT22;37657;53.182;5.638;2023-08-30T07:51:01;16.70;99.90
51567;DHT22;37657;53.182;5.638;2023-08-30T07:53:27;16.70;99.90
51567;DHT22;37657;53.182;5.638;2023-08-30T07:55:52;16.70;99.90
51567;DHT22;37657;53.182;5.638;2023-08-30T07:58:18;16.70;99.90
51567;DHT22;37657;53.182;5.638;2023-08-30T08:00:44;16.80;99.90
51567;DHT22;37657;53.182;5.638;2023-08-30T08:03:09;16.90;99.90
51567;DHT22;37657;53.182;5.638;2023-08-30T08:05:38;16.80;99.90
51567;DHT22;37657;53.182;5.638;2023-08-30T08:08:03;16.90;99.90
51567;DHT22;37657;53.182;5.638;2023-08-30T08:10:33;16.90;99.90
51567;DHT22;37657;53.182;5.638;2023-08-30T08:13:02;16.90;99.90
51567;DHT22;37657;53.182;5.638;2023-08-30T08:15:29;16.90;99.90
51567;DHT22;37657;53.182;5.638;2023-08-30T08:17:56;16.90;99.90
51567;DHT22;37657;53.182;5.638;2023-08-30T08:20:22;16.90;99.90
51567;DHT22;37657;53.182;5.638;2023-08-30T08:22:48;16.70;99.90
51567;DHT22;37657;53.182;5.638;2023-08-30T08:25:14;16.60;99.90
51567;DHT22;37657;53.182;5.638;2023-08-30T08:27:39;16.50;99.90
51567;DHT22;37657;53.182;5.638;2023-08-30T08:30:06;16.60;99.90
51567;DHT22;37657;53.182;5.638;2023-08-30T08:32:32;16.20;99.90
51567;DHT22;37657;53.182;5.638;2023-08-30T08:34:58;16.20;99.90
51567;DHT22;37657;53.182;5.638;2023-08-30T08:37:24;15.90;99.90
51567;DHT22;37657;53.182;5.638;2023-08-30T08:39:49;15.80;99.90
51567;DHT22;37657;53.182;5.638;2023-08-30T08:42:19;15.70;99.90
51567;DHT22;37657;53.182;5.638;2023-08-30T08:44:51;15.60;99.90
51567;DHT22;37657;53.182;5.638;2023-08-30T08:47:17;15.60;99.90
51567;DHT22;37657;53.182;5.638;2023-08-30T08:49:44;15.60;99.90
51567;DHT22;37657;53.182;5.638;2023-08-30T08:52:10;15.60;99.90
51567;DHT22;37657;53.182;5.638;2023-08-30T08:54:39;15.60;99.90
51567;DHT22;37657;53.182;5.638;2023-08-30T08:57:06;15.50;99.90
51567;DHT22;37657;53.182;5.638;2023-08-30T08:59:32;15.60;99.90
51567;DHT22;37657;53.182;5.638;2023-08-30T09:01:59;15.50;99.90
51567;DHT22;37657;53.182;5.638;2023-08-30T09:04:25;15.50;99.90
51567;DHT22;37657;53.182;5.638;2023-08-30T09:06:51;15.60;99.90
51567;DHT22;37657;53.182;5.638;2023-08-30T09:09:17;15.40;99.90
51567;DHT22;37657;53.182;5.638;2023-08-30T09:11:43;15.40;99.90
51567;DHT22;37657;53.182;5.638;2023-08-30T09:14:09;15.30;99.90
51567;DHT22;37657;53.182;5.638;2023-08-30T09:16:35;15.20;99.90
51567;DHT22;37657;53.182;5.638;2023-08-30T09:19:01;15.30;99.90
51567;DHT22;37657;53.182;5.638;2023-08-30T09:21:27;15.20;99.90
51567;DHT22;37657;53.182;5.638;2023-08-30T09:24:04;15.10;99.90
51567;DHT22;37657;53.182;5.638;2023-08-30T09:26:30;15.10;99.90
51567;DHT22;37657;53.182;5.638;2023-08-30T09:29:05;15.10;99.90
51567;DHT22;37657;53.182;5.638;2023-08-30T09:31:38;15.10;99.90
51567;DHT22;37657;53.182;5.638;2023-08-30T09:34:05;15.10;99.90
51567;DHT22;37657;53.182;5.638;2023-08-30T09:36:41;15.00;99.90
51567;DHT22;37657;53.182;5.638;2023-08-30T09:39:14;15.10;99.90
51567;DHT22;37657;53.182;5.638;2023-08-30T09:41:49;15.10;99.90
51567;DHT22;37657;53.182;5.638;2023-08-30T09:44:17;15.10;99.90
51567;DHT22;37657;53.182;5.638;2023-08-30T09:46:45;15.30;99.90
51567;DHT22;37657;53.182;5.638;2023-08-30T09:49:11;15.20;99.90
51567;DHT22;37657;53.182;5.638;2023-08-30T09:51:39;15.30;99.90
51567;DHT22;37657;53.182;5.638;2023-08-30T09:54:11;15.30;99.90
51567;DHT22;37657;53.182;5.638;2023-08-30T09:56:38;15.50;99.90
51567;DHT22;37657;53.182;5.638;2023-08-30T09:59:05;15.40;99.90
51567;DHT22;37657;53.182;5.638;2023-08-30T10:01:31;15.50;99.90
51567;DHT22;37657;53.182;5.638;2023-08-30T10:03:57;15.40;99.90
51567;DHT22;37657;53.182;5.638;2023-08-30T10:06:24;15.30;99.90
51567;DHT22;37657;53.182;5.638;2023-08-30T10:08:51;15.40;99.90
51567;DHT22;37657;53.182;5.638;2023-08-30T10:11:18;15.50;99.90
51567;DHT22;37657;53.182;5.638;2023-08-30T10:13:45;15.50;99.90
51567;DHT22;37657;53.182;5.638;2023-08-30T10:16:18;15.60;99.90
51567;DHT22;37657;53.182;5.638;2023-08-30T10:18:47;15.60;99.90
51567;DHT22;37657;53.182;5.638;2023-08-30T10:21:18;15.60;99.90
51567;DHT22;37657;53.182;5.638;2023-08-30T10:23:45;15.60;99.90
51567;DHT22;37657;53.182;5.638;2023-08-30T10:26:12;15.80;99.90
51567;DHT22;37657;53.182;5.638;2023-08-30T10:28:40;15.70;99.90
51567;DHT22;37657;53.182;5.638;2023-08-30T10:31:06;15.70;99.90
51567;DHT22;37657;53.182;5.638;2023-08-30T10:33:50;15.70;99.90
51567;DHT22;37657;53.182;5.638;2023-08-30T10:36:23;15.80;99.90
51567;DHT22;37657;53.182;5.638;2023-08-30T10:38:50;15.90;99.90
51567;DHT22;37657;53.182;5.638;2023-08-30T10:41:23;15.90;99.90
51567;DHT22;37657;53.182;5.638;2023-08-30T10:43:55;15.90;99.90
51567;DHT22;37657;53.182;5.638;2023-08-30T10:46:34;15.90;99.90
51567;DHT22;37657;53.182;5.638;2023-08-30T10:49:14;15.90;99.90
51567;DHT22;37657;53.182;5.638;2023-08-30T10:51:40;16.00;99.90
51567;DHT22;37657;53.182;5.638;2023-08-30T10:54:11;16.00;99.90
51567;DHT22;37657;53.182;5.638;2023-08-30T11:01:49;16.00;99.90
51567;DHT22;37657;53.182;5.638;2023-08-30T11:04:16;16.00;99.90
51567;DHT22;37657;53.182;5.638;2023-08-30T11:06:43;15.90;99.90
51567;DHT22;37657;53.182;5.638;2023-08-30T11:09:10;16.00;99.90
51567;DHT22;37657;53.182;5.638;2023-08-30T11:11:37;15.90;99.90
51567;DHT22;37657;53.182;5.638;2023-08-30T11:14:07;16.00;99.90
51567;DHT22;37657;53.182;5.638;2023-08-30T11:16:34;16.00;99.90
51567;DHT22;37657;53.182;5.638;2023-08-30T11:19:01;16.00;99.90
51567;DHT22;37657;53.182;5.638;2023-08-30T11:21:29;15.90;99.90
51567;DHT22;37657;53.182;5.638;2023-08-30T11:23:55;16.00;99.90
51567;DHT22;37657;53.182;5.638;2023-08-30T11:26:21;15.90;99.90
51567;DHT22;37657;53.182;5.638;2023-08-30T11:28:47;15.90;99.90
51567;DHT22;37657;53.182;5.638;2023-08-30T11:31:24;16.10;99.90
51567;DHT22;37657;53.182;5.638;2023-08-30T11:33:53;16.10;99.90
51567;DHT22;37657;53.182;5.638;2023-08-30T11:36:26;16.10;99.90
51567;DHT22;37657;53.182;5.638;2023-08-30T11:38:56;16.10;99.90
51567;DHT22;37657;53.182;5.638;2023-08-30T11:41:22;16.10;99.90
51567;DHT22;37657;53.182;5.638;2023-08-30T11:43:49;16.20;99.90
51567;DHT22;37657;53.182;5.638;2023-08-30T11:46:15;16.10;99.90
51567;DHT22;37657;53.182;5.638;2023-08-30T11:48:42;16.20;99.90
51567;DHT22;37657;53.182;5.638;2023-08-30T11:51:08;16.00;99.90
51567;DHT22;37657;53.182;5.638;2023-08-30T11:53:34;16.20;99.90
51567;DHT22;37657;53.182;5.638;2023-08-30T11:56:00;16.10;99.90
51567;DHT22;37657;53.182;5.638;2023-08-30T11:58:26;16.10;99.90
51567;DHT22;37657;53.182;5.638;2023-08-30T12:00:53;16.20;99.90
51567;DHT22;37657;53.182;5.638;2023-08-30T12:03:20;16.30;99.90
51567;DHT22;37657;53.182;5.638;2023-08-30T12:05:46;16.20;99.90
51567;DHT22;37657;53.182;5.638;2023-08-30T12:08:20;16.40;99.90
51567;DHT22;37657;53.182;5.638;2023-08-30T12:10:46;16.40;99.90
51567;DHT22;37657;53.182;5.638;2023-08-30T12:13:33;16.50;99.90
51567;DHT22;37657;53.182;5.638;2023-08-30T12:16:01;16.50;99.90
51567;DHT22;37657;53.182;5.638;2023-08-30T12:18:32;16.40;99.90
51567;DHT22;37657;53.182;5.638;2023-08-30T12:21:02;16.40;99.90
51567;DHT22;37657;53.182;5.638;2023-08-30T12:23:32;16.50;99.90
51567;DHT22;37657;53.182;5.638;2023-08-30T12:26:02;16.60;99.90
51567;DHT22;37657;53.182;5.638;2023-08-30T12:28:30;16.60;99.90
51567;DHT22;37657;53.182;5.638;2023-08-30T12:30:57;16.70;99.90
51567;DHT22;37657;53.182;5.638;2023-08-30T12:33:23;16.80;99.90
51567;DHT22;37657;53.182;5.638;2023-08-30T12:35:51;16.70;99.90
51567;DHT22;37657;53.182;5.638;2023-08-30T12:38:17;16.90;99.90
51567;DHT22;37657;53.182;5.638;2023-08-30T12:40:44;16.80;99.90
51567;DHT22;37657;53.182;5.638;2023-08-30T12:43:10;17.00;99.90
51567;DHT22;37657;53.182;5.638;2023-08-30T12:45:37;17.10;99.90
51567;DHT22;37657;53.182;5.638;2023-08-30T12:48:03;17.20;99.90
51567;DHT22;37657;53.182;5.638;2023-08-30T12:50:29;17.20;99.90
51567;DHT22;37657;53.182;5.638;2023-08-30T12:52:54;17.10;99.90
51567;DHT22;37657;53.182;5.638;2023-08-30T12:55:20;17.30;99.90
51567;DHT22;37657;53.182;5.638;2023-08-30T12:57:46;17.40;99.90
51567;DHT22;37657;53.182;5.638;2023-08-30T13:00:12;17.50;99.90
51567;DHT22;37657;53.182;5.638;2023-08-30T13:02:38;17.40;99.90
51567;DHT22;37657;53.182;5.638;2023-08-30T13:05:04;17.60;99.90
51567;DHT22;37657;53.182;5.638;2023-08-30T13:07:30;17.60;99.90
51567;DHT22;37657;53.182;5.638;2023-08-30T13:09:56;17.60;99.90
51567;DHT22;37657;53.182;5.638;2023-08-30T13:12:22;17.70;99.90
51567;DHT22;37657;53.182;5.638;2023-08-30T13:14:47;17.70;99.90
51567;DHT22;37657;53.182;5.638;2023-08-30T13:17:13;17.70;99.90
51567;DHT22;37657;53.182;5.638;2023-08-30T13:19:38;17.70;99.90
51567;DHT22;37657;53.182;5.638;2023-08-30T13:22:04;17.60;99.90
51567;DHT22;37657;53.182;5.638;2023-08-30T13:24:30;17.60;99.90
51567;DHT22;37657;53.182;5.638;2023-08-30T13:26:58;17.70;99.90
51567;DHT22;37657;53.182;5.638;2023-08-30T13:29:25;17.60;99.90
51567;DHT22;37657;53.182;5.638;2023-08-30T13:31:51;17.70;99.90
51567;DHT22;37657;53.182;5.638;2023-08-30T13:34:16;17.80;99.90
51567;DHT22;37657;53.182;5.638;2023-08-30T13:36:42;17.80;99.90
51567;DHT22;37657;53.182;5.638;2023-08-30T13:39:07;17.80;99.90
51567;DHT22;37657;53.182;5.638;2023-08-30T13:41:33;18.00;99.90
51567;DHT22;37657;53.182;5.638;2023-08-30T13:43:59;18.10;99.90
51567;DHT22;37657;53.182;5.638;2023-08-30T13:46:25;18.20;99.90
51567;DHT22;37657;53.182;5.638;2023-08-30T13:48:50;18.20;99.90
51567;DHT22;37657;53.182;5.638;2023-08-30T13:51:21;18.10;99.90
51567;DHT22;37657;53.182;5.638;2023-08-30T13:53:47;17.90;99.90
51567;DHT22;37657;53.182;5.638;2023-08-30T13:56:13;17.80;99.90
51567;DHT22;37657;53.182;5.638;2023-08-30T13:58:38;17.70;99.90
51567;DHT22;37657;53.182;5.638;2023-08-30T14:01:04;17.60;99.90
51567;DHT22;37657;53.182;5.638;2023-08-30T14:03:30;17.50;99.90
51567;DHT22;37657;53.182;5.638;2023-08-30T14:05:56;17.50;99.90
51567;DHT22;37657;53.182;5.638;2023-08-30T14:08:21;17.50;99.90
51567;DHT22;37657;53.182;5.638;2023-08-30T14:10:47;17.50;99.90
51567;DHT22;37657;53.182;5.638;2023-08-30T14:13:12;17.40;99.90
51567;DHT22;37657;53.182;5.638;2023-08-30T14:15:38;17.40;99.90
51567;DHT22;37657;53.182;5.638;2023-08-30T14:18:04;17.70;99.90
51567;DHT22;37657;53.182;5.638;2023-08-30T14:20:30;17.70;99.90
51567;DHT22;37657;53.182;5.638;2023-08-30T14:22:55;17.70;99.90
51567;DHT22;37657;53.182;5.638;2023-08-30T14:25:21;17.60;99.90
51567;DHT22;37657;53.182;5.638;2023-08-30T14:27:46;17.60;99.90
51567;DHT22;37657;53.182;5.638;2023-08-30T14:30:12;17.60;99.90
51567;DHT22;37657;53.182;5.638;2023-08-30T14:32:38;17.60;99.90
51567;DHT22;37657;53.182;5.638;2023-08-30T14:35:03;17.50;99.90
51567;DHT22;37657;53.182;5.638;2023-08-30T14:37:29;17.60;99.90
51567;DHT22;37657;53.182;5.638;2023-08-30T14:39:55;17.50;99.90
51567;DHT22;37657;53.182;5.638;2023-08-30T14:42:20;17.50;99.90
51567;DHT22;37657;53.182;5.638;2023-08-30T14:44:52;17.40;99.90
51567;DHT22;37657;53.182;5.638;2023-08-30T14:47:18;17.40;99.90
51567;DHT22;37657;53.182;5.638;2023-08-30T14:49:45;17.40;99.90
51567;DHT22;37657;53.182;5.638;2023-08-30T14:52:12;17.50;99.90
51567;DHT22;37657;53.182;5.638;2023-08-30T14:54:38;17.60;99.90
51567;DHT22;37657;53.182;5.638;2023-08-30T14:57:03;17.50;99.90
51567;DHT22;37657;53.182;5.638;2023-08-30T14:59:29;17.50;99.90
51567;DHT22;37657;53.182;5.638;2023-08-30T15:01:55;17.50;99.90
51567;DHT22;37657;53.182;5.638;2023-08-30T15:04:21;17.60;99.90
51567;DHT22;37657;53.182;5.638;2023-08-30T15:06:46;17.60;99.90
51567;DHT22;37657;53.182;5.638;2023-08-30T15:09:12;17.70;99.90
51567;DHT22;37657;53.182;5.638;2023-08-30T15:11:42;17.60;99.90
51567;DHT22;37657;53.182;5.638;2023-08-30T15:14:08;17.50;99.90
51567;DHT22;37657;53.182;5.638;2023-08-30T15:16:34;17.40;99.90
51567;DHT22;37657;53.182;5.638;2023-08-30T15:19:00;17.30;99.90
51567;DHT22;37657;53.182;5.638;2023-08-30T15:21:26;17.20;99.90
51567;DHT22;37657;53.182;5.638;2023-08-30T15:23:51;17.10;99.90
51567;DHT22;37657;53.182;5.638;2023-08-30T15:26:17;17.10;99.90
51567;DHT22;37657;53.182;5.638;2023-08-30T15:28:46;17.00;99.90
51567;DHT22;37657;53.182;5.638;2023-08-30T15:31:12;17.10;99.90
51567;DHT22;37657;53.182;5.638;2023-08-30T15:33:38;17.20;99.90
51567;DHT22;37657;53.182;5.638;2023-08-30T15:36:04;17.40;99.90